PRIVATE WETTERSTATION BILLIGHEIM-ALLFELD                       ZURCK
Wetterdaten: Montag, 19.09.2016
Datum Zeit Temp. A. Temp. A. min Temp. A. max Feuchte A. Luftdruck Regen Wind Richtung Richtung Sonnenschein ET Solar Taupunkt Windchill Windben Empfang
19.09.2016 00:00 11,8 C 11,8 C 11,9 C 91 % 1013,4 hPa 0,0 l/m 0,0 km/h (0 Bft) N 0 0 min 0,000 mm 0 W/m 10,4 C 11,8 C 0,0 km/h (0 Bft) 100 %
19.09.2016 00:10 11,8 C 11,8 C 11,8 C 91 % 1013,4 hPa 0,0 l/m 0,0 km/h (0 Bft) N 0 0 min 0,000 mm 0 W/m 10,4 C 11,8 C 0,0 km/h (0 Bft) 100 %
19.09.2016 00:20 11,8 C 11,8 C 11,8 C 91 % 1013,5 hPa 0,0 l/m 0,0 km/h (0 Bft) N 0 0 min 0,000 mm 0 W/m 10,4 C 11,8 C 0,0 km/h (0 Bft) 100 %
19.09.2016 00:30 11,8 C 11,8 C 11,8 C 91 % 1013,5 hPa 0,0 l/m 0,0 km/h (0 Bft) N 0 0 min 0,000 mm 0 W/m 10,4 C 11,8 C 0,0 km/h (0 Bft) 99 %
19.09.2016 00:40 11,7 C 11,7 C 11,8 C 91 % 1013,5 hPa 0,0 l/m 0,0 km/h (0 Bft) N-NW 337 0 min 0,000 mm 0 W/m 10,3 C 11,7 C 1,6 km/h (1 Bft) 100 %
19.09.2016 00:50 11,7 C 11,7 C 11,7 C 91 % 1013,5 hPa 0,0 l/m 0,0 km/h (0 Bft) N 0 0 min 0,000 mm 0 W/m 10,3 C 11,7 C 0,0 km/h (0 Bft) 99 %
19.09.2016 01:00 11,5 C 11,5 C 11,7 C 91 % 1013,4 hPa 0,0 l/m 0,0 km/h (0 Bft) N 0 0 min 0,000 mm 0 W/m 10,1 C 11,5 C 0,0 km/h (0 Bft) 99 %
19.09.2016 01:10 11,4 C 11,4 C 11,5 C 91 % 1013,5 hPa 0,0 l/m 0,0 km/h (0 Bft) N 0 0 min 0,000 mm 0 W/m 10,0 C 11,4 C 0,0 km/h (0 Bft) 100 %
19.09.2016 01:20 11,4 C 11,4 C 11,4 C 91 % 1013,6 hPa 0,0 l/m 0,0 km/h (0 Bft) N 0 0 min 0,000 mm 0 W/m 10,0 C 11,4 C 0,0 km/h (0 Bft) 100 %
19.09.2016 01:30 11,3 C 11,3 C 11,4 C 91 % 1013,6 hPa 0,0 l/m 0,0 km/h (0 Bft) N 0 0 min 0,000 mm 0 W/m 9,9 C 11,3 C 0,0 km/h (0 Bft) 100 %
19.09.2016 01:40 11,3 C 11,3 C 11,3 C 91 % 1013,6 hPa 0,0 l/m 0,0 km/h (0 Bft) N 0 0 min 0,000 mm 0 W/m 9,9 C 11,3 C 0,0 km/h (0 Bft) 99 %
19.09.2016 01:50 11,4 C 11,3 C 11,4 C 91 % 1013,7 hPa 0,0 l/m 0,0 km/h (0 Bft) N 0 0 min 0,000 mm 0 W/m 10,0 C 11,4 C 0,0 km/h (0 Bft) 100 %
19.09.2016 02:00 11,6 C 11,4 C 11,6 C 91 % 1013,7 hPa 0,0 l/m 0,0 km/h (0 Bft) N 0 0 min 0,000 mm 0 W/m 10,2 C 11,6 C 0,0 km/h (0 Bft) 100 %
19.09.2016 02:10 11,7 C 11,6 C 11,7 C 91 % 1013,7 hPa 0,0 l/m 0,0 km/h (0 Bft) N 0 0 min 0,000 mm 0 W/m 10,3 C 11,7 C 0,0 km/h (0 Bft) 100 %
19.09.2016 02:20 11,8 C 11,7 C 11,8 C 91 % 1013,7 hPa 0,0 l/m 0,0 km/h (0 Bft) N 0 0 min 0,000 mm 0 W/m 10,4 C 11,8 C 0,0 km/h (0 Bft) 100 %
19.09.2016 02:30 11,9 C 11,8 C 11,9 C 91 % 1013,6 hPa 0,0 l/m 0,0 km/h (0 Bft) N 0 0 min 0,000 mm 0 W/m 10,5 C 11,9 C 0,0 km/h (0 Bft) 100 %
19.09.2016 02:40 11,9 C 11,9 C 11,9 C 91 % 1013,6 hPa 0,0 l/m 0,0 km/h (0 Bft) N 0 0 min 0,000 mm 0 W/m 10,5 C 11,9 C 0,0 km/h (0 Bft) 100 %
19.09.2016 02:50 11,9 C 11,9 C 11,9 C 91 % 1013,6 hPa 0,0 l/m 0,0 km/h (0 Bft) N 0 0 min 0,000 mm 0 W/m 10,5 C 11,9 C 0,0 km/h (0 Bft) 100 %
19.09.2016 03:00 11,9 C 11,9 C 11,9 C 91 % 1013,7 hPa 0,0 l/m 0,0 km/h (0 Bft) N 0 0 min 0,000 mm 0 W/m 10,5 C 11,9 C 0,0 km/h (0 Bft) 100 %
19.09.2016 03:10 11,8 C 11,8 C 11,9 C 91 % 1013,9 hPa 0,0 l/m 0,0 km/h (0 Bft) N 0 0 min 0,000 mm 0 W/m 10,4 C 11,8 C 0,0 km/h (0 Bft) 100 %
19.09.2016 03:20 11,8 C 11,8 C 11,8 C 91 % 1013,9 hPa 0,0 l/m 0,0 km/h (0 Bft) N 0 0 min 0,000 mm 0 W/m 10,4 C 11,8 C 0,0 km/h (0 Bft) 100 %
19.09.2016 03:30 11,8 C 11,8 C 11,8 C 91 % 1014,1 hPa 0,0 l/m 0,0 km/h (0 Bft) N-NW 337 0 min 0,000 mm 0 W/m 10,4 C 11,8 C 1,6 km/h (1 Bft) 100 %
19.09.2016 03:40 11,7 C 11,7 C 11,8 C 91 % 1014,1 hPa 0,0 l/m 0,0 km/h (0 Bft) N-NW 337 0 min 0,000 mm 0 W/m 10,3 C 11,7 C 4,8 km/h (1 Bft) 100 %
19.09.2016 03:50 11,7 C 11,7 C 11,7 C 91 % 1014,1 hPa 0,0 l/m 0,0 km/h (0 Bft) N-NW 337 0 min 0,000 mm 0 W/m 10,3 C 11,7 C 1,6 km/h (1 Bft) 100 %
19.09.2016 04:00 11,6 C 11,6 C 11,7 C 91 % 1014,2 hPa 0,0 l/m 0,0 km/h (0 Bft) N-NW 337 0 min 0,000 mm 0 W/m 10,2 C 11,6 C 4,8 km/h (1 Bft) 99 %
19.09.2016 04:10 11,6 C 11,6 C 11,6 C 91 % 1014,2 hPa 0,0 l/m 0,0 km/h (0 Bft) N-NW 337 0 min 0,000 mm 0 W/m 10,2 C 11,6 C 3,2 km/h (1 Bft) 100 %
19.09.2016 04:20 11,6 C 11,6 C 11,6 C 91 % 1014,2 hPa 0,0 l/m 0,0 km/h (0 Bft) N 0 0 min 0,000 mm 0 W/m 10,2 C 11,6 C 0,0 km/h (0 Bft) 99 %
19.09.2016 04:30 11,6 C 11,6 C 11,6 C 91 % 1014,3 hPa 0,0 l/m 0,0 km/h (0 Bft) N 0 0 min 0,000 mm 0 W/m 10,2 C 11,6 C 0,0 km/h (0 Bft) 100 %
19.09.2016 04:40 11,6 C 11,6 C 11,6 C 91 % 1014,3 hPa 0,0 l/m 0,0 km/h (0 Bft) N 0 0 min 0,000 mm 0 W/m 10,2 C 11,6 C 0,0 km/h (0 Bft) 99 %
19.09.2016 04:50 11,6 C 11,6 C 11,6 C 91 % 1014,3 hPa 0,0 l/m 0,0 km/h (0 Bft) N 0 0 min 0,000 mm 0 W/m 10,2 C 11,6 C 0,0 km/h (0 Bft) 100 %
19.09.2016 05:00 11,7 C 11,6 C 11,7 C 91 % 1014,4 hPa 0,0 l/m 0,0 km/h (0 Bft) N 0 0 min 0,000 mm 0 W/m 10,3 C 11,7 C 0,0 km/h (0 Bft) 100 %
19.09.2016 05:10 11,7 C 11,7 C 11,7 C 91 % 1014,6 hPa 0,0 l/m 0,0 km/h (0 Bft) N 0 0 min 0,000 mm 0 W/m 10,3 C 11,7 C 0,0 km/h (0 Bft) 100 %
19.09.2016 05:20 11,7 C 11,7 C 11,7 C 91 % 1014,6 hPa 0,0 l/m 0,0 km/h (0 Bft) N 0 0 min 0,000 mm 0 W/m 10,3 C 11,7 C 0,0 km/h (0 Bft) 100 %
19.09.2016 05:30 11,7 C 11,7 C 11,7 C 91 % 1014,6 hPa 0,0 l/m 0,0 km/h (0 Bft) N 0 0 min 0,000 mm 0 W/m 10,3 C 11,7 C 0,0 km/h (0 Bft) 99 %
19.09.2016 05:40 11,7 C 11,7 C 11,7 C 91 % 1014,6 hPa 0,0 l/m 0,0 km/h (0 Bft) N 0 0 min 0,000 mm 0 W/m 10,3 C 11,7 C 0,0 km/h (0 Bft) 100 %
19.09.2016 05:50 11,8 C 11,7 C 11,8 C 91 % 1014,6 hPa 0,0 l/m 0,0 km/h (0 Bft) N 0 0 min 0,000 mm 0 W/m 10,4 C 11,8 C 0,0 km/h (0 Bft) 100 %
19.09.2016 06:00 11,8 C 11,8 C 11,8 C 91 % 1014,7 hPa 0,0 l/m 0,0 km/h (0 Bft) N 0 0 min 0,000 mm 0 W/m 10,4 C 11,8 C 0,0 km/h (0 Bft) 99 %
19.09.2016 06:10 11,8 C 11,8 C 11,8 C 91 % 1014,7 hPa 0,0 l/m 0,0 km/h (0 Bft) N 0 0 min 0,000 mm 0 W/m 10,4 C 11,8 C 0,0 km/h (0 Bft) 100 %
19.09.2016 06:20 11,8 C 11,8 C 11,8 C 91 % 1014,7 hPa 0,0 l/m 0,0 km/h (0 Bft) N-NW 337 0 min 0,000 mm 0 W/m 10,4 C 11,8 C 4,8 km/h (1 Bft) 100 %
19.09.2016 06:30 11,8 C 11,8 C 11,8 C 91 % 1014,7 hPa 0,0 l/m 0,0 km/h (0 Bft) N-NW 337 0 min 0,000 mm 0 W/m 10,4 C 11,8 C 3,2 km/h (1 Bft) 100 %
19.09.2016 06:40 11,8 C 11,8 C 11,8 C 91 % 1014,8 hPa 0,0 l/m 0,0 km/h (0 Bft) N-NW 337 0 min 0,000 mm 0 W/m 10,4 C 11,8 C 3,2 km/h (1 Bft) 100 %
19.09.2016 06:50 11,8 C 11,7 C 11,8 C 91 % 1014,9 hPa 0,0 l/m 0,0 km/h (0 Bft) N-NW 337 0 min 0,000 mm 0 W/m 10,4 C 11,8 C 4,8 km/h (1 Bft) 100 %
19.09.2016 07:00 11,8 C 11,7 C 11,8 C 91 % 1015,0 hPa 0,0 l/m 1,6 km/h (1 Bft) N-NW 337 0 min 0,000 mm 0 W/m 10,4 C 11,8 C 4,8 km/h (1 Bft) 99 %
19.09.2016 07:10 11,8 C 11,8 C 11,8 C 91 % 1015,0 hPa 0,0 l/m 0,0 km/h (0 Bft) N-NW 337 0 min 0,000 mm 0 W/m 10,4 C 11,8 C 4,8 km/h (1 Bft) 100 %
19.09.2016 07:20 11,8 C 11,8 C 11,8 C 91 % 1015,0 hPa 0,2 l/m 0,0 km/h (0 Bft) N-NW 337 0 min 0,000 mm 0 W/m 10,4 C 11,8 C 4,8 km/h (1 Bft) 100 %
19.09.2016 07:30 11,8 C 11,8 C 11,8 C 91 % 1015,1 hPa 0,0 l/m 0,0 km/h (0 Bft) N 0 0 min 0,000 mm 5 W/m 10,4 C 11,8 C 0,0 km/h (0 Bft) 99 %
19.09.2016 07:40 11,8 C 11,8 C 11,9 C 91 % 1015,2 hPa 0,0 l/m 1,6 km/h (1 Bft) N-NW 337 0 min 0,000 mm 9 W/m 10,4 C 11,8 C 6,4 km/h (2 Bft) 100 %
19.09.2016 07:50 11,9 C 11,8 C 11,9 C 91 % 1015,2 hPa 0,0 l/m 1,6 km/h (1 Bft) N-NW 337 0 min 0,000 mm 11 W/m 10,5 C 11,9 C 4,8 km/h (1 Bft) 100 %
19.09.2016 08:00 11,9 C 11,9 C 11,9 C 91 % 1015,2 hPa 0,0 l/m 1,6 km/h (1 Bft) N-NW 337 0 min 0,000 mm 7 W/m 10,5 C 11,9 C 4,8 km/h (1 Bft) 100 %
19.09.2016 08:10 11,9 C 11,9 C 11,9 C 91 % 1015,2 hPa 0,0 l/m 1,6 km/h (1 Bft) N-NW 337 0 min 0,000 mm 14 W/m 10,5 C 11,9 C 6,4 km/h (2 Bft) 100 %
19.09.2016 08:20 11,9 C 11,9 C 11,9 C 91 % 1015,2 hPa 0,0 l/m 0,0 km/h (0 Bft) N-NW 337 0 min 0,000 mm 14 W/m 10,5 C 11,9 C 6,4 km/h (2 Bft) 100 %
19.09.2016 08:30 12,0 C 11,9 C 12,0 C 91 % 1015,3 hPa 0,0 l/m 0,0 km/h (0 Bft) NW 315 0 min 0,000 mm 18 W/m 10,6 C 12,0 C 6,4 km/h (2 Bft) 100 %
19.09.2016 08:40 11,9 C 11,9 C 12,0 C 91 % 1015,3 hPa 0,0 l/m 1,6 km/h (1 Bft) N 360 0 min 0,000 mm 18 W/m 10,5 C 11,9 C 8,0 km/h (2 Bft) 100 %
19.09.2016 08:50 12,0 C 11,9 C 12,0 C 91 % 1015,3 hPa 0,0 l/m 0,0 km/h (0 Bft) N 360 0 min 0,000 mm 21 W/m 10,6 C 12,0 C 1,6 km/h (1 Bft) 100 %
19.09.2016 09:00 12,0 C 12,0 C 12,0 C 91 % 1015,3 hPa 0,0 l/m 0,0 km/h (0 Bft) N-NW 337 0 min 0,000 mm 28 W/m 10,6 C 12,0 C 1,6 km/h (1 Bft) 100 %
19.09.2016 09:10 12,1 C 12,0 C 12,1 C 91 % 1015,4 hPa 0,0 l/m 0,0 km/h (0 Bft) N-NW 337 0 min 0,000 mm 42 W/m 10,7 C 12,1 C 6,4 km/h (2 Bft) 100 %
19.09.2016 09:20 12,2 C 12,1 C 12,2 C 91 % 1015,4 hPa 0,0 l/m 0,0 km/h (0 Bft) N-NW 337 0 min 0,000 mm 54 W/m 10,8 C 12,2 C 4,8 km/h (1 Bft) 100 %
19.09.2016 09:30 12,3 C 12,2 C 12,3 C 91 % 1015,5 hPa 0,0 l/m 0,0 km/h (0 Bft) N-NW 337 0 min 0,000 mm 69 W/m 10,9 C 12,3 C 4,8 km/h (1 Bft) 100 %
19.09.2016 09:40 12,5 C 12,3 C 12,5 C 91 % 1015,7 hPa 0,0 l/m 0,0 km/h (0 Bft) N-NW 337 0 min 0,000 mm 74 W/m 11,1 C 12,5 C 1,6 km/h (1 Bft) 100 %
19.09.2016 09:50 12,6 C 12,5 C 12,6 C 91 % 1015,9 hPa 0,0 l/m 0,0 km/h (0 Bft) N-NW 337 0 min 0,000 mm 76 W/m 11,2 C 12,6 C 1,6 km/h (1 Bft) 100 %
19.09.2016 10:00 12,5 C 12,5 C 12,6 C 91 % 1016,0 hPa 0,0 l/m 1,6 km/h (1 Bft) NW 315 0 min 0,025 mm 69 W/m 11,1 C 12,5 C 8,0 km/h (2 Bft) 100 %
19.09.2016 10:10 12,4 C 12,4 C 12,5 C 91 % 1016,2 hPa 0,0 l/m 3,2 km/h (1 Bft) NW 315 0 min 0,000 mm 74 W/m 11,0 C 12,4 C 8,0 km/h (2 Bft) 100 %
19.09.2016 10:20 12,6 C 12,4 C 12,6 C 91 % 1016,2 hPa 0,0 l/m 0,0 km/h (0 Bft) NW 315 0 min 0,000 mm 97 W/m 11,2 C 12,6 C 3,2 km/h (1 Bft) 100 %
19.09.2016 10:30 12,8 C 12,6 C 12,8 C 91 % 1016,3 hPa 0,0 l/m 0,0 km/h (0 Bft) NW 315 0 min 0,000 mm 128 W/m 11,4 C 12,8 C 1,6 km/h (1 Bft) 100 %
19.09.2016 10:40 13,0 C 12,8 C 13,0 C 91 % 1016,4 hPa 0,0 l/m 0,0 km/h (0 Bft) NW 315 0 min 0,000 mm 134 W/m 11,6 C 13,0 C 4,8 km/h (1 Bft) 100 %
19.09.2016 10:50 13,2 C 13,0 C 13,2 C 91 % 1016,6 hPa 0,0 l/m 3,2 km/h (1 Bft) N-NW 337 0 min 0,000 mm 123 W/m 11,8 C 13,2 C 6,4 km/h (2 Bft) 100 %
19.09.2016 11:00 13,2 C 13,2 C 13,2 C 91 % 1016,7 hPa 0,0 l/m 3,2 km/h (1 Bft) NW 315 0 min 0,051 mm 111 W/m 11,8 C 13,2 C 8,0 km/h (2 Bft) 100 %
19.09.2016 11:10 13,2 C 13,2 C 13,2 C 91 % 1016,6 hPa 0,0 l/m 3,2 km/h (1 Bft) NW 315 0 min 0,000 mm 149 W/m 11,8 C 13,2 C 6,4 km/h (2 Bft) 100 %
19.09.2016 11:20 13,4 C 13,2 C 13,4 C 91 % 1016,6 hPa 0,0 l/m 3,2 km/h (1 Bft) NW 315 10 min 0,000 mm 188 W/m 12,0 C 13,4 C 8,0 km/h (2 Bft) 100 %
19.09.2016 11:30 13,6 C 13,4 C 13,6 C 91 % 1016,6 hPa 0,0 l/m 4,8 km/h (1 Bft) NW 315 10 min 0,000 mm 186 W/m 12,2 C 13,6 C 8,0 km/h (2 Bft) 100 %
19.09.2016 11:40 13,7 C 13,6 C 13,7 C 91 % 1016,6 hPa 0,0 l/m 4,8 km/h (1 Bft) NW 315 10 min 0,000 mm 202 W/m 12,3 C 13,7 C 8,0 km/h (2 Bft) 100 %
19.09.2016 11:50 14,1 C 13,7 C 14,1 C 91 % 1016,6 hPa 0,0 l/m 4,8 km/h (1 Bft) NW 315 10 min 0,000 mm 540 W/m 12,7 C 14,1 C 9,7 km/h (2 Bft) 100 %
19.09.2016 12:00 14,8 C 14,2 C 14,8 C 90 % 1016,6 hPa 0,0 l/m 6,4 km/h (2 Bft) NW 315 10 min 0,127 mm 468 W/m 13,2 C 14,8 C 17,7 km/h (3 Bft) 100 %
19.09.2016 12:10 15,1 C 14,8 C 15,1 C 89 % 1016,6 hPa 0,0 l/m 6,4 km/h (2 Bft) NW 315 10 min 0,000 mm 376 W/m 13,3 C 15,1 C 17,7 km/h (3 Bft) 100 %
19.09.2016 12:20 15,3 C 15,1 C 15,3 C 89 % 1016,6 hPa 0,0 l/m 9,7 km/h (2 Bft) NW 315 10 min 0,000 mm 629 W/m 13,5 C 13,6 C 19,3 km/h (3 Bft) 100 %
19.09.2016 12:30 15,7 C 15,3 C 15,7 C 87 % 1016,6 hPa 0,0 l/m 8,0 km/h (2 Bft) W-NW 292 10 min 0,000 mm 403 W/m 13,5 C 14,8 C 14,5 km/h (3 Bft) 100 %
19.09.2016 12:40 16,0 C 15,7 C 16,0 C 87 % 1016,6 hPa 0,0 l/m 8,0 km/h (2 Bft) NW 315 10 min 0,000 mm 510 W/m 13,8 C 15,2 C 16,1 km/h (3 Bft) 100 %
19.09.2016 12:50 16,2 C 16,0 C 16,3 C 83 % 1016,6 hPa 0,0 l/m 8,0 km/h (2 Bft) W-NW 292 10 min 0,000 mm 462 W/m 13,3 C 15,4 C 16,1 km/h (3 Bft) 100 %
19.09.2016 13:00 16,3 C 16,2 C 16,3 C 84 % 1016,7 hPa 0,0 l/m 6,4 km/h (2 Bft) W-NW 292 10 min 0,203 mm 301 W/m 13,6 C 16,3 C 12,9 km/h (3 Bft) 100 %
19.09.2016 13:10 16,3 C 16,3 C 16,3 C 82 % 1016,7 hPa 0,0 l/m 8,0 km/h (2 Bft) W-NW 292 10 min 0,000 mm 302 W/m 13,2 C 15,5 C 16,1 km/h (3 Bft) 99 %
19.09.2016 13:20 16,3 C 16,2 C 16,3 C 83 % 1016,6 hPa 0,0 l/m 6,4 km/h (2 Bft) W-NW 292 10 min 0,000 mm 244 W/m 13,4 C 16,3 C 11,3 km/h (2 Bft) 100 %
19.09.2016 13:30 16,2 C 16,2 C 16,3 C 81 % 1016,7 hPa 0,0 l/m 9,5 km/h (2 Bft) NW 315 0 min 0,000 mm 58 W/m 12,9 C 14,7 C 14,5 km/h (3 Bft) 96 %
19.09.2016 13:40 15,9 C 15,9 C 16,2 C 83 % 1016,6 hPa 0,0 l/m 4,8 km/h (1 Bft) W-NW 295 0 min 0,000 mm 44 W/m 13,0 C 15,9 C 9,7 km/h (2 Bft) 98 %
19.09.2016 13:50 15,6 C 15,6 C 15,9 C 84 % 1016,7 hPa 0,0 l/m 4,2 km/h (1 Bft) W-NW 300 0 min 0,000 mm 33 W/m 12,9 C 15,6 C 9,7 km/h (2 Bft) 98 %
19.09.2016 14:00 15,4 C 15,4 C 15,6 C 83 % 1016,6 hPa 0,0 l/m 3,6 km/h (1 Bft) NW 305 0 min 0,000 mm 23 W/m 12,5 C 15,4 C 9,7 km/h (2 Bft) 98 %
19.09.2016 14:10 15,2 C 15,2 C 15,4 C 85 % 1016,7 hPa 0,0 l/m 0,5 km/h (0 Bft) NW 308 0 min 0,076 mm 19 W/m 12,7 C 15,2 C 8,0 km/h (2 Bft) 97 %
19.09.2016 14:20 15,1 C 15,1 C 15,2 C 86 % 1016,7 hPa 0,0 l/m 0,0 km/h (0 Bft) NW 309 0 min 0,001 mm 30 W/m 12,8 C 15,1 C 0,0 km/h (0 Bft) 98 %
19.09.2016 14:30 15,1 C 15,1 C 15,1 C 87 % 1016,7 hPa 0,0 l/m 0,0 km/h (0 Bft) NW 309 0 min 0,000 mm 49 W/m 13,0 C 15,1 C 0,0 km/h (0 Bft) 99 %
19.09.2016 14:40 15,0 C 15,0 C 15,1 C 89 % 1016,7 hPa 0,0 l/m 0,0 km/h (0 Bft) NW 309 0 min 0,000 mm 77 W/m 13,2 C 15,0 C 0,0 km/h (0 Bft) 100 %
19.09.2016 14:50 15,1 C 15,0 C 15,1 C 89 % 1016,8 hPa 0,0 l/m 0,0 km/h (0 Bft) NW 309 0 min 0,000 mm 105 W/m 13,3 C 15,1 C 0,0 km/h (0 Bft) 100 %
19.09.2016 15:00 15,1 C 15,1 C 15,1 C 89 % 1016,8 hPa 0,0 l/m 0,0 km/h (0 Bft) NW 309 10 min 0,025 mm 172 W/m 13,3 C 15,1 C 1,6 km/h (1 Bft) 100 %
19.09.2016 15:10 15,2 C 15,1 C 15,2 C 87 % 1016,8 hPa 0,0 l/m 0,8 km/h (0 Bft) NW 320 0 min 0,000 mm 40 W/m 13,0 C 15,2 C 6,4 km/h (2 Bft) 100 %
19.09.2016 15:20 15,3 C 15,2 C 15,3 C 87 % 1016,9 hPa 0,0 l/m 4,3 km/h (1 Bft) N 5 0 min 0,000 mm 118 W/m 13,1 C 15,3 C 9,7 km/h (2 Bft) 100 %
19.09.2016 15:30 15,4 C 15,3 C 15,4 C 86 % 1016,9 hPa 0,0 l/m 4,4 km/h (1 Bft) N-NW 332 10 min 0,000 mm 160 W/m 13,1 C 15,4 C 12,9 km/h (3 Bft) 100 %
19.09.2016 15:40 15,6 C 15,4 C 15,6 C 85 % 1017,0 hPa 0,0 l/m 5,7 km/h (1 Bft) NW 309 10 min 0,000 mm 163 W/m 13,1 C 15,6 C 14,5 km/h (3 Bft) 100 %
19.09.2016 15:50 15,7 C 15,6 C 15,8 C 84 % 1017,0 hPa 0,0 l/m 5,9 km/h (2 Bft) NW 315 10 min 0,000 mm 174 W/m 13,0 C 15,7 C 20,9 km/h (4 Bft) 100 %
19.09.2016 16:00 15,8 C 15,7 C 15,8 C 85 % 1017,1 hPa 0,0 l/m 4,9 km/h (1 Bft) NW 321 10 min 0,076 mm 156 W/m 13,3 C 15,8 C 16,1 km/h (3 Bft) 100 %
19.09.2016 16:10 15,8 C 15,8 C 15,8 C 85 % 1017,1 hPa 0,0 l/m 7,4 km/h (2 Bft) N-NW 327 0 min 0,000 mm 141 W/m 13,3 C 15,3 C 16,1 km/h (3 Bft) 100 %
19.09.2016 16:20 15,8 C 15,8 C 15,9 C 83 % 1017,0 hPa 0,0 l/m 3,7 km/h (1 Bft) N-NW 333 0 min 0,000 mm 134 W/m 12,9 C 15,8 C 11,3 km/h (2 Bft) 100 %
19.09.2016 16:30 15,7 C 15,7 C 15,8 C 83 % 1017,1 hPa 0,0 l/m 1,4 km/h (1 Bft) N-NW 327 0 min 0,000 mm 141 W/m 12,8 C 15,7 C 9,7 km/h (2 Bft) 100 %
19.09.2016 16:40 15,6 C 15,6 C 15,7 C 84 % 1017,1 hPa 0,0 l/m 0,0 km/h (0 Bft) N-NW 344 0 min 0,000 mm 149 W/m 12,9 C 15,6 C 1,6 km/h (1 Bft) 100 %
19.09.2016 16:50 15,4 C 15,4 C 15,6 C 83 % 1017,1 hPa 0,0 l/m 0,2 km/h (0 Bft) N-NW 336 0 min 0,000 mm 98 W/m 12,5 C 15,4 C 4,8 km/h (1 Bft) 100 %
19.09.2016 17:00 15,3 C 15,3 C 15,4 C 85 % 1017,1 hPa 0,0 l/m 0,8 km/h (0 Bft) NW 325 10 min 0,076 mm 156 W/m 12,8 C 15,3 C 9,7 km/h (2 Bft) 100 %
19.09.2016 17:10 15,2 C 15,2 C 15,3 C 85 % 1017,0 hPa 0,0 l/m 1,3 km/h (1 Bft) N-NW 346 0 min 0,000 mm 151 W/m 12,7 C 15,2 C 6,4 km/h (2 Bft) 100 %
19.09.2016 17:20 15,2 C 15,2 C 15,3 C 85 % 1017,0 hPa 0,0 l/m 3,7 km/h (1 Bft) NW 326 0 min 0,000 mm 134 W/m 12,7 C 15,2 C 11,3 km/h (2 Bft) 100 %
19.09.2016 17:30 15,2 C 15,2 C 15,3 C 85 % 1017,0 hPa 0,0 l/m 1,3 km/h (1 Bft) N-NW 347 0 min 0,000 mm 100 W/m 12,7 C 15,2 C 8,0 km/h (2 Bft) 100 %
19.09.2016 17:40 15,1 C 15,1 C 15,2 C 84 % 1017,1 hPa 0,0 l/m 0,0 km/h (0 Bft) N-NW 339 0 min 0,000 mm 84 W/m 12,4 C 15,1 C 1,6 km/h (1 Bft) 100 %
19.09.2016 17:50 15,1 C 15,1 C 15,1 C 84 % 1017,1 hPa 0,0 l/m 0,2 km/h (0 Bft) N-NW 338 0 min 0,000 mm 72 W/m 12,4 C 15,1 C 3,2 km/h (1 Bft) 100 %
19.09.2016 18:00 14,9 C 14,9 C 15,1 C 84 % 1017,1 hPa 0,0 l/m 0,0 km/h (0 Bft) N-NW 340 0 min 0,051 mm 62 W/m 12,2 C 14,9 C 1,6 km/h (1 Bft) 100 %
19.09.2016 18:10 14,8 C 14,8 C 14,9 C 85 % 1017,1 hPa 0,0 l/m 0,0 km/h (0 Bft) N-NW 337 0 min 0,000 mm 58 W/m 12,3 C 14,8 C 0,0 km/h (0 Bft) 100 %
19.09.2016 18:20 14,6 C 14,6 C 14,8 C 86 % 1017,3 hPa 0,0 l/m 0,0 km/h (0 Bft) N-NW 337 0 min 0,000 mm 53 W/m 12,3 C 14,6 C 0,0 km/h (0 Bft) 100 %
19.09.2016 18:30 14,4 C 14,4 C 14,6 C 85 % 1017,3 hPa 0,0 l/m 0,1 km/h (0 Bft) NW 316 0 min 0,000 mm 67 W/m 11,9 C 14,4 C 3,2 km/h (1 Bft) 100 %
19.09.2016 18:40 14,3 C 14,3 C 14,4 C 87 % 1017,3 hPa 0,0 l/m 0,0 km/h (0 Bft) NW 316 0 min 0,000 mm 67 W/m 12,2 C 14,3 C 1,6 km/h (1 Bft) 100 %
19.09.2016 18:50 14,3 C 14,3 C 14,3 C 86 % 1017,3 hPa 0,0 l/m 0,0 km/h (0 Bft) NW 316 0 min 0,000 mm 53 W/m 12,0 C 14,3 C 0,0 km/h (0 Bft) 100 %
19.09.2016 19:00 14,2 C 14,2 C 14,3 C 86 % 1017,3 hPa 0,0 l/m 0,3 km/h (0 Bft) NW 323 0 min 0,026 mm 33 W/m 11,9 C 14,2 C 3,2 km/h (1 Bft) 100 %
19.09.2016 19:10 14,0 C 14,0 C 14,2 C 87 % 1017,1 hPa 0,0 l/m 0,0 km/h (0 Bft) NW 323 0 min 0,000 mm 30 W/m 11,9 C 14,0 C 1,6 km/h (1 Bft) 100 %
19.09.2016 19:20 13,8 C 13,8 C 14,0 C 87 % 1017,1 hPa 0,0 l/m 0,0 km/h (0 Bft) NW 323 0 min 0,000 mm 14 W/m 11,7 C 13,8 C 0,0 km/h (0 Bft) 100 %
19.09.2016 19:30 13,7 C 13,7 C 13,8 C 87 % 1017,3 hPa 0,0 l/m 0,0 km/h (0 Bft) NW 323 0 min 0,000 mm 5 W/m 11,6 C 13,7 C 1,6 km/h (1 Bft) 99 %
19.09.2016 19:40 13,6 C 13,6 C 13,7 C 88 % 1017,3 hPa 0,0 l/m 0,0 km/h (0 Bft) NW 323 0 min 0,000 mm 0 W/m 11,6 C 13,6 C 0,0 km/h (0 Bft) 100 %
19.09.2016 19:50 13,4 C 13,4 C 13,6 C 88 % 1017,5 hPa 0,0 l/m 0,0 km/h (0 Bft) NW 323 0 min 0,000 mm 0 W/m 11,5 C 13,4 C 0,0 km/h (0 Bft) 100 %
19.09.2016 20:00 13,3 C 13,3 C 13,4 C 88 % 1017,6 hPa 0,0 l/m 0,0 km/h (0 Bft) NW 324 0 min 0,000 mm 0 W/m 11,4 C 13,3 C 1,6 km/h (1 Bft) 100 %
19.09.2016 20:10 13,2 C 13,2 C 13,3 C 89 % 1017,7 hPa 0,0 l/m 0,0 km/h (0 Bft) NW 324 0 min 0,000 mm 0 W/m 11,4 C 13,2 C 0,0 km/h (0 Bft) 100 %
19.09.2016 20:20 13,2 C 13,2 C 13,2 C 89 % 1017,7 hPa 0,0 l/m 0,0 km/h (0 Bft) NW 324 0 min 0,000 mm 0 W/m 11,4 C 13,2 C 0,0 km/h (0 Bft) 100 %
19.09.2016 20:30 13,1 C 13,1 C 13,2 C 89 % 1017,7 hPa 0,0 l/m 0,0 km/h (0 Bft) NW 324 0 min 0,000 mm 0 W/m 11,3 C 13,1 C 0,0 km/h (0 Bft) 100 %
19.09.2016 20:40 13,1 C 13,1 C 13,1 C 89 % 1017,7 hPa 0,0 l/m 0,0 km/h (0 Bft) NW 324 0 min 0,000 mm 0 W/m 11,3 C 13,1 C 0,0 km/h (0 Bft) 100 %
19.09.2016 20:50 13,0 C 13,0 C 13,1 C 89 % 1017,7 hPa 0,0 l/m 0,0 km/h (0 Bft) NW 324 0 min 0,000 mm 0 W/m 11,2 C 13,0 C 0,0 km/h (0 Bft) 100 %
19.09.2016 21:00 12,9 C 12,9 C 13,0 C 89 % 1017,8 hPa 0,0 l/m 0,0 km/h (0 Bft) NW 324 0 min 0,000 mm 0 W/m 11,1 C 12,9 C 0,0 km/h (0 Bft) 100 %
19.09.2016 21:10 12,9 C 12,9 C 12,9 C 89 % 1017,8 hPa 0,0 l/m 0,0 km/h (0 Bft) N 0 0 min 0,000 mm 0 W/m 11,1 C 12,9 C 0,0 km/h (0 Bft) 99 %
19.09.2016 21:20 12,9 C 12,9 C 12,9 C 90 % 1017,8 hPa 0,0 l/m 0,0 km/h (0 Bft) N 0 0 min 0,000 mm 0 W/m 11,3 C 12,9 C 0,0 km/h (0 Bft) 98 %
19.09.2016 21:30 12,8 C 12,8 C 12,9 C 90 % 1017,8 hPa 0,0 l/m 0,0 km/h (0 Bft) NW 315 0 min 0,000 mm 0 W/m 11,2 C 12,8 C 1,6 km/h (1 Bft) 100 %
19.09.2016 21:40 12,8 C 12,8 C 12,8 C 90 % 1017,8 hPa 0,0 l/m 0,0 km/h (0 Bft) N 0 0 min 0,000 mm 0 W/m 11,2 C 12,8 C 0,0 km/h (0 Bft) 100 %
19.09.2016 21:50 12,8 C 12,8 C 12,8 C 90 % 1017,9 hPa 0,0 l/m 0,0 km/h (0 Bft) N 0 0 min 0,000 mm 0 W/m 11,2 C 12,8 C 0,0 km/h (0 Bft) 100 %
19.09.2016 22:00 12,8 C 12,8 C 12,8 C 90 % 1017,8 hPa 0,0 l/m 0,0 km/h (0 Bft) N 0 0 min 0,000 mm 0 W/m 11,2 C 12,8 C 0,0 km/h (0 Bft) 100 %
19.09.2016 22:10 12,8 C 12,7 C 12,8 C 90 % 1017,8 hPa 0,0 l/m 0,0 km/h (0 Bft) N 0 0 min 0,000 mm 0 W/m 11,2 C 12,8 C 0,0 km/h (0 Bft) 100 %
19.09.2016 22:20 12,7 C 12,7 C 12,8 C 90 % 1017,8 hPa 0,0 l/m 0,0 km/h (0 Bft) N 0 0 min 0,000 mm 0 W/m 11,1 C 12,7 C 0,0 km/h (0 Bft) 99 %
19.09.2016 22:30 12,7 C 12,7 C 12,7 C 90 % 1017,8 hPa 0,0 l/m 0,0 km/h (0 Bft) N 0 0 min 0,000 mm 0 W/m 11,1 C 12,7 C 0,0 km/h (0 Bft) 99 %
19.09.2016 22:40 12,7 C 12,7 C 12,7 C 90 % 1017,7 hPa 0,0 l/m 0,0 km/h (0 Bft) N 0 0 min 0,000 mm 0 W/m 11,1 C 12,7 C 0,0 km/h (0 Bft) 100 %
19.09.2016 22:50 12,6 C 12,6 C 12,7 C 90 % 1017,7 hPa 0,0 l/m 0,0 km/h (0 Bft) N 0 0 min 0,000 mm 0 W/m 11,0 C 12,6 C 0,0 km/h (0 Bft) 99 %
19.09.2016 23:00 12,6 C 12,6 C 12,6 C 90 % 1017,8 hPa 0,0 l/m 0,0 km/h (0 Bft) N 0 0 min 0,000 mm 0 W/m 11,0 C 12,6 C 0,0 km/h (0 Bft) 100 %
19.09.2016 23:10 12,6 C 12,6 C 12,6 C 90 % 1017,7 hPa 0,0 l/m 0,0 km/h (0 Bft) N 0 0 min 0,000 mm 0 W/m 11,0 C 12,6 C 0,0 km/h (0 Bft) 100 %
19.09.2016 23:20 12,6 C 12,6 C 12,6 C 90 % 1018,0 hPa 0,0 l/m 0,0 km/h (0 Bft) N 0 0 min 0,000 mm 0 W/m 11,0 C 12,6 C 0,0 km/h (0 Bft) 100 %
19.09.2016 23:30 12,6 C 12,6 C 12,6 C 91 % 1017,9 hPa 0,0 l/m 0,0 km/h (0 Bft) N 0 0 min 0,000 mm 0 W/m 11,2 C 12,6 C 0,0 km/h (0 Bft) 100 %
19.09.2016 23:40 12,6 C 12,5 C 12,6 C 90 % 1018,0 hPa 0,0 l/m 0,0 km/h (0 Bft) N 0 0 min 0,000 mm 0 W/m 11,0 C 12,6 C 0,0 km/h (0 Bft) 99 %
19.09.2016 23:50 12,5 C 12,5 C 12,6 C 90 % 1018,0 hPa 0,0 l/m 0,0 km/h (0 Bft) N 0 0 min 0,000 mm 0 W/m 10,9 C 12,5 C 0,0 km/h (0 Bft) 100 %
_ Min-Zeit 01:30 01:30 01:40 13:30 00:00 - 00:00 - - - - - 01:30 01:30 00:00 13:30
Minimum _ 11,3 C 11,3 C 11,3 C 81 % 1013,4 hPa - 0,0 km/h (0 Bft) - - - - - 9,9 C 11,3 C 0,0 km/h (0 Bft) 96 %
_ Max-Zeit 12:50 13:10 12:50 00:00 23:20 07:20 12:20 - - 11:20 13:00 12:20 12:40 13:00 15:50 00:00
Maximum _ 16,3 C 16,3 C 16,3 C 91 % 1018,0 hPa 0,2 l/m 9,7 km/h
NW (2 Bft)
- - 10 min 0,203 mm 629 W/m 13,8 C 16,3 C 20,9 km/h
NW (4 Bft)
100 %
Durchschnitt _ 13,2 C 13,2 C 13,2 C 89 % 1016,0 hPa #0,2 l/m 1,2 km/h (1 Bft) NW - #3:10 h #0,737 mm 128 W/m 11,4 C 13,2 C 3,9 km/h (1 Bft) 100 %
PRIVATE WETTERSTATION BILLIGHEIM-ALLFELD - www.neckar-odenwald-wetter.de - Holger Sonntag